createdAt,value
2023-05-13T00:00:59.569Z,2.30
2023-05-13T00:03:26.257Z,1.95
2023-05-13T00:05:53.096Z,1.70
2023-05-13T00:08:20.225Z,2.10
2023-05-13T00:10:46.863Z,2.00
2023-05-13T00:13:13.518Z,2.05
2023-05-13T00:15:40.714Z,2.47
2023-05-13T00:18:08.267Z,2.22
2023-05-13T00:20:34.940Z,2.38
2023-05-13T00:23:03.240Z,1.98
2023-05-13T00:25:29.865Z,2.65
2023-05-13T00:27:56.510Z,2.03
2023-05-13T00:30:23.275Z,2.67
2023-05-13T00:32:50.035Z,2.17
2023-05-13T00:35:16.891Z,2.08
2023-05-13T00:37:43.782Z,2.42
2023-05-13T00:40:21.013Z,2.13
2023-05-13T00:42:48.118Z,2.47
2023-05-13T00:45:14.793Z,2.10
2023-05-13T00:47:42.713Z,2.25
2023-05-13T00:50:14.694Z,3.47
2023-05-13T00:52:43.029Z,2.13
2023-05-13T00:55:11.566Z,2.67
2023-05-13T00:57:40.232Z,2.63
2023-05-13T01:00:08.081Z,2.58
2023-05-13T01:03:02.568Z,2.70
2023-05-13T01:06:01.955Z,2.42
2023-05-13T01:08:53.454Z,2.83
2023-05-13T01:11:28.155Z,2.50
2023-05-13T01:14:14.090Z,2.92
2023-05-13T01:16:50.365Z,2.50
2023-05-13T01:19:55.196Z,2.35
2023-05-13T01:22:22.431Z,2.45
2023-05-13T01:24:50.614Z,2.80
2023-05-13T01:27:17.602Z,2.92
2023-05-13T01:29:45.955Z,2.83
2023-05-13T01:32:12.837Z,2.60
2023-05-13T01:34:41.272Z,2.65
2023-05-13T01:37:08.034Z,2.50
2023-05-13T01:39:37.733Z,2.70
2023-05-13T01:42:04.652Z,2.50
2023-05-13T01:44:32.968Z,2.78
2023-05-13T01:46:59.637Z,2.72
2023-05-13T01:49:26.277Z,2.47
2023-05-13T01:51:52.963Z,2.70
2023-05-13T01:54:19.516Z,3.03
2023-05-13T01:56:48.578Z,3.00
2023-05-13T01:59:15.254Z,2.95
2023-05-13T02:01:41.895Z,3.10
2023-05-13T02:04:09.818Z,3.42
2023-05-13T02:06:36.417Z,3.20
2023-05-13T02:09:03.072Z,3.17
2023-05-13T02:11:29.726Z,3.08
2023-05-13T02:13:56.396Z,3.90
2023-05-13T02:16:23.138Z,3.00
2023-05-13T02:18:49.841Z,3.63
2023-05-13T02:21:16.565Z,3.72
2023-05-13T02:23:43.143Z,4.43
2023-05-13T02:26:09.927Z,4.45
2023-05-13T02:28:36.858Z,3.50
2023-05-13T02:31:03.478Z,3.30
2023-05-13T02:33:30.299Z,3.58
2023-05-13T02:35:56.979Z,4.07
2023-05-13T02:38:25.613Z,3.28
2023-05-13T02:40:52.501Z,3.60
2023-05-13T02:43:19.652Z,3.40
2023-05-13T02:45:47.802Z,3.08
2023-05-13T02:48:16.523Z,3.45
2023-05-13T02:50:43.232Z,3.65
2023-05-13T02:53:09.843Z,3.80
2023-05-13T02:55:36.488Z,3.13
2023-05-13T02:58:03.254Z,3.50
2023-05-13T03:00:29.840Z,3.95
2023-05-13T03:02:57.686Z,3.97
2023-05-13T03:05:24.788Z,3.40
2023-05-13T03:07:51.704Z,4.18
2023-05-13T03:10:18.392Z,3.95
2023-05-13T03:12:45.120Z,3.67
2023-05-13T03:15:11.981Z,3.88
2023-05-13T03:17:38.628Z,4.00
2023-05-13T03:20:05.861Z,4.50
2023-05-13T03:22:32.497Z,4.68
2023-05-13T03:24:59.196Z,3.92
2023-05-13T03:27:25.874Z,4.07
2023-05-13T03:29:52.470Z,4.35
2023-05-13T03:32:19.175Z,4.95
2023-05-13T03:34:45.758Z,4.25
2023-05-13T03:37:12.269Z,3.85
2023-05-13T03:39:38.808Z,4.05
2023-05-13T03:42:05.820Z,4.32
2023-05-13T03:44:32.394Z,4.45
2023-05-13T03:46:58.958Z,4.63
2023-05-13T03:49:25.600Z,4.40
2023-05-13T03:51:52.111Z,4.07
2023-05-13T03:54:18.700Z,4.10
2023-05-13T03:56:45.471Z,3.88
2023-05-13T03:59:12.160Z,4.07
2023-05-13T04:01:39.904Z,4.53
2023-05-13T04:04:06.512Z,4.80
2023-05-13T04:06:33.096Z,4.47
2023-05-13T04:08:59.800Z,3.72
2023-05-13T04:11:26.472Z,4.55
2023-05-13T04:13:53.018Z,7.18
2023-05-13T04:16:19.644Z,5.68
2023-05-13T04:18:46.448Z,4.18
2023-05-13T04:21:14.331Z,4.15
2023-05-13T04:23:40.887Z,4.20
2023-05-13T04:26:07.777Z,4.20
2023-05-13T04:28:34.821Z,3.67
2023-05-13T04:31:02.935Z,3.72
2023-05-13T04:33:29.584Z,3.40
2023-05-13T04:35:56.136Z,3.65
2023-05-13T04:38:22.726Z,3.92
2023-05-13T04:40:49.303Z,3.42
2023-05-13T04:43:16.172Z,3.42
2023-05-13T04:45:42.850Z,3.55
2023-05-13T04:48:09.543Z,3.70
2023-05-13T04:50:36.527Z,3.90
2023-05-13T04:53:03.204Z,3.17
2023-05-13T04:55:29.837Z,4.13
2023-05-13T04:57:56.537Z,4.47
2023-05-13T05:00:24.137Z,5.03
2023-05-13T05:02:50.920Z,5.95
2023-05-13T05:05:18.589Z,4.70
2023-05-13T05:07:45.432Z,5.03
2023-05-13T05:10:12.056Z,4.95
2023-05-13T05:12:39.246Z,5.60
2023-05-13T05:15:06.518Z,7.28
2023-05-13T05:17:34.098Z,7.30
2023-05-13T05:20:00.836Z,6.80
2023-05-13T05:22:27.496Z,7.18
2023-05-13T05:24:56.754Z,6.60
2023-05-13T05:27:23.575Z,6.43
2023-05-13T05:29:50.354Z,6.32
2023-05-13T05:32:17.011Z,6.18
2023-05-13T05:34:43.712Z,6.35
2023-05-13T05:37:10.327Z,5.93
2023-05-13T05:39:38.141Z,6.25
2023-05-13T05:42:04.999Z,6.43
2023-05-13T05:44:31.564Z,7.00
2023-05-13T05:46:58.303Z,6.00
2023-05-13T05:49:24.911Z,5.85
2023-05-13T05:52:01.959Z,5.78
2023-05-13T05:54:28.556Z,4.90
2023-05-13T05:56:55.386Z,5.30
2023-05-13T05:59:22.070Z,4.80
2023-05-13T06:01:48.696Z,5.22
2023-05-13T06:04:15.601Z,4.45
2023-05-13T06:06:42.327Z,4.63
2023-05-13T06:09:09.480Z,4.10
2023-05-13T06:11:36.276Z,5.35
2023-05-13T06:14:02.926Z,4.75
2023-05-13T06:16:29.593Z,4.82
2023-05-13T06:18:56.296Z,4.20
2023-05-13T06:21:23.051Z,4.13
2023-05-13T06:23:49.666Z,4.28
2023-05-13T06:26:16.305Z,4.07
2023-05-13T06:28:42.916Z,4.38
2023-05-13T06:31:09.882Z,4.00
2023-05-13T06:33:37.667Z,4.13
2023-05-13T06:36:04.799Z,4.20
2023-05-13T06:38:31.454Z,3.53
2023-05-13T06:40:58.037Z,3.47
2023-05-13T06:43:24.662Z,3.78
2023-05-13T06:45:51.217Z,3.90
2023-05-13T06:48:17.986Z,4.40
2023-05-13T06:50:44.602Z,3.63
2023-05-13T06:53:12.092Z,3.45
2023-05-13T06:55:41.670Z,3.97
2023-05-13T06:58:09.493Z,4.47
2023-05-13T07:00:40.602Z,3.78
2023-05-13T07:03:07.738Z,3.63
2023-05-13T07:05:34.846Z,3.95
2023-05-13T07:08:06.586Z,3.38
2023-05-13T07:10:34.414Z,3.55
2023-05-13T07:13:04.806Z,3.80
2023-05-13T07:15:31.498Z,3.53
2023-05-13T07:17:58.140Z,3.53
2023-05-13T07:20:26.629Z,3.20
2023-05-13T07:22:53.621Z,3.30
2023-05-13T07:25:20.566Z,3.40
2023-05-13T07:27:47.968Z,3.95
2023-05-13T07:30:14.833Z,3.25
2023-05-13T07:32:42.557Z,3.35
2023-05-13T07:35:10.342Z,3.70
2023-05-13T07:37:39.733Z,3.20
2023-05-13T07:40:08.052Z,3.40
2023-05-13T07:42:35.094Z,3.58
2023-05-13T07:45:02.164Z,3.55
2023-05-13T07:47:29.278Z,3.75
2023-05-13T07:49:56.018Z,3.50
2023-05-13T07:52:23.932Z,3.25
2023-05-13T07:54:51.034Z,3.67
2023-05-13T07:57:20.102Z,3.72
2023-05-13T07:59:46.764Z,3.47
2023-05-13T08:02:13.392Z,3.65
2023-05-13T08:04:40.140Z,3.30
2023-05-13T08:07:07.036Z,3.42
2023-05-13T08:09:33.633Z,2.95
2023-05-13T08:12:00.645Z,3.22
2023-05-13T08:14:27.341Z,3.50
2023-05-13T08:16:54.296Z,3.78
2023-05-13T08:19:21.040Z,3.10
2023-05-13T08:21:47.737Z,3.72
2023-05-13T08:24:14.443Z,3.17
2023-05-13T08:26:41.087Z,3.38
2023-05-13T08:29:08.671Z,3.30
2023-05-13T08:31:35.377Z,3.08
2023-05-13T08:34:02.302Z,3.70
2023-05-13T08:36:28.933Z,3.80
2023-05-13T08:38:56.246Z,3.50
2023-05-13T08:41:23.079Z,3.17
2023-05-13T08:43:52.050Z,3.22
2023-05-13T08:46:19.549Z,3.47
2023-05-13T08:48:47.248Z,3.40
2023-05-13T08:51:14.331Z,3.95
2023-05-13T08:53:42.738Z,3.13
2023-05-13T08:56:09.865Z,3.70
2023-05-13T08:58:36.590Z,3.30
2023-05-13T09:01:04.428Z,3.35
2023-05-13T09:03:32.336Z,4.25
2023-05-13T09:06:03.124Z,3.35
2023-05-13T09:08:30.302Z,3.17
2023-05-13T09:10:57.941Z,3.10
2023-05-13T09:13:24.536Z,2.92
2023-05-13T09:15:51.831Z,3.13
2023-05-13T09:18:19.508Z,3.35
2023-05-13T09:20:46.836Z,3.20
2023-05-13T09:23:13.779Z,3.75
2023-05-13T09:25:40.640Z,2.83
2023-05-13T09:28:08.505Z,3.13
2023-05-13T09:30:40.685Z,3.38
2023-05-13T09:33:11.642Z,3.13
2023-05-13T09:35:40.373Z,3.17
2023-05-13T09:38:25.970Z,3.17
2023-05-13T09:40:57.471Z,3.10
2023-05-13T09:43:26.928Z,3.15
2023-05-13T09:45:55.643Z,3.05
2023-05-13T09:48:27.127Z,3.22
2023-05-13T09:50:55.063Z,3.10
2023-05-13T09:53:21.830Z,3.53
2023-05-13T09:55:49.873Z,3.10
2023-05-13T09:58:16.650Z,3.10
2023-05-13T10:00:43.987Z,3.30
2023-05-13T10:03:12.110Z,3.45
2023-05-13T10:05:40.731Z,3.88
2023-05-13T10:08:13.531Z,3.42
2023-05-13T10:10:41.649Z,3.63
2023-05-13T10:13:14.852Z,3.58
2023-05-13T10:15:54.464Z,3.10
2023-05-13T10:18:23.965Z,3.33
2023-05-13T10:20:53.698Z,3.75
2023-05-13T10:23:22.565Z,3.60
2023-05-13T10:25:50.866Z,3.30
2023-05-13T10:28:18.004Z,2.95
2023-05-13T10:30:45.049Z,3.10
2023-05-13T10:33:12.290Z,3.25
2023-05-13T10:35:43.311Z,3.28
2023-05-13T10:38:43.607Z,3.10
2023-05-13T10:41:30.485Z,4.00
2023-05-13T10:43:58.925Z,4.68
2023-05-13T10:46:25.799Z,3.70
2023-05-13T10:48:57.254Z,3.22
2023-05-13T10:51:25.396Z,3.88
2023-05-13T10:53:58.650Z,3.97
2023-05-13T10:56:27.864Z,3.70
2023-05-13T10:59:13.098Z,3.35
2023-05-13T11:01:45.997Z,3.47
2023-05-13T11:04:16.712Z,3.20
2023-05-13T11:06:46.404Z,3.25
2023-05-13T11:09:22.236Z,3.03
2023-05-13T11:11:59.102Z,3.60
2023-05-13T11:14:27.474Z,3.15
2023-05-13T11:17:00.094Z,3.45
2023-05-13T11:19:46.879Z,3.40
2023-05-13T11:22:21.317Z,3.08
2023-05-13T11:25:05.704Z,3.50
2023-05-13T11:27:40.481Z,3.35
2023-05-13T11:30:21.166Z,3.70
2023-05-13T11:35:31.565Z,3.60
2023-05-13T11:38:03.351Z,4.45
2023-05-13T11:40:35.291Z,4.80
2023-05-13T11:43:02.586Z,3.97
2023-05-13T11:45:30.071Z,3.72
2023-05-13T11:47:57.645Z,4.15
2023-05-13T11:50:27.523Z,3.97
2023-05-13T11:52:57.219Z,3.65
2023-05-13T11:55:28.977Z,3.08
2023-05-13T11:57:56.030Z,4.07
2023-05-13T12:00:33.576Z,3.40
2023-05-13T12:03:10.098Z,3.67
2023-05-13T12:05:37.196Z,3.45
2023-05-13T12:08:03.990Z,3.20
2023-05-13T12:10:30.676Z,3.40
2023-05-13T12:12:57.362Z,3.55
2023-05-13T12:15:24.469Z,3.67
2023-05-13T12:17:51.644Z,3.30
2023-05-13T12:20:19.392Z,3.30
2023-05-13T12:22:45.924Z,3.22
2023-05-13T12:25:32.878Z,3.20
2023-05-13T12:28:00.408Z,3.40
2023-05-13T12:30:34.249Z,3.63
2023-05-13T12:33:01.125Z,4.10
2023-05-13T12:35:27.849Z,3.53
2023-05-13T12:38:05.186Z,3.67
2023-05-13T12:40:32.404Z,3.55
2023-05-13T12:43:00.159Z,3.35
2023-05-13T12:45:31.890Z,3.53
2023-05-13T12:47:59.947Z,3.63
2023-05-13T12:50:26.821Z,3.22
2023-05-13T12:52:54.134Z,3.50
2023-05-13T12:55:21.318Z,3.30
2023-05-13T12:58:01.029Z,4.35
2023-05-13T13:00:27.972Z,3.70
2023-05-13T13:02:54.621Z,3.60
2023-05-13T13:05:25.301Z,3.13
2023-05-13T13:10:18.712Z,3.17
2023-05-13T13:12:45.498Z,3.80
2023-05-13T13:15:12.676Z,3.17
2023-05-13T13:17:39.617Z,3.20
2023-05-13T13:20:07.707Z,3.60
2023-05-13T13:22:37.007Z,2.85
2023-05-13T13:25:05.544Z,3.45
2023-05-13T13:27:35.452Z,3.45
2023-05-13T13:30:02.552Z,3.77
2023-05-13T13:32:29.324Z,3.67
2023-05-13T13:34:58.186Z,2.90
2023-05-13T13:37:24.803Z,3.20
2023-05-13T13:39:51.518Z,3.15
2023-05-13T13:42:18.160Z,3.08
2023-05-13T13:44:44.976Z,2.92
2023-05-13T13:47:11.632Z,3.33
2023-05-13T13:49:38.212Z,2.97
2023-05-13T13:52:05.134Z,3.05
2023-05-13T13:54:31.755Z,2.75
2023-05-13T13:56:58.679Z,8.45
2023-05-13T13:59:25.327Z,6.68
2023-05-13T14:01:52.806Z,6.95
2023-05-13T14:04:23.300Z,9.93
2023-05-13T14:06:51.363Z,4.70
2023-05-13T14:09:18.588Z,3.78
2023-05-13T14:11:45.486Z,4.13
2023-05-13T14:14:12.138Z,3.40
2023-05-13T14:16:38.777Z,3.35
2023-05-13T14:19:05.429Z,3.25
2023-05-13T14:21:32.504Z,3.00
2023-05-13T14:23:59.219Z,12.02
2023-05-13T14:26:26.479Z,3.35
2023-05-13T14:28:53.846Z,2.97
2023-05-13T14:31:21.065Z,3.05
2023-05-13T14:33:47.791Z,3.78
2023-05-13T14:36:16.148Z,3.30
2023-05-13T14:38:43.789Z,3.10
2023-05-13T14:41:11.129Z,2.80
2023-05-13T14:43:37.836Z,3.28
2023-05-13T14:46:04.972Z,3.38
2023-05-13T14:48:31.602Z,3.00
2023-05-13T14:50:58.226Z,3.35
2023-05-13T14:53:24.881Z,2.92
2023-05-13T14:55:51.716Z,2.78
2023-05-13T14:58:18.600Z,3.20
2023-05-13T15:00:45.406Z,2.95
2023-05-13T15:03:12.500Z,2.72
2023-05-13T15:05:39.836Z,2.83
2023-05-13T15:08:08.478Z,2.90
2023-05-13T15:10:35.147Z,2.97
2023-05-13T15:13:01.718Z,2.72
2023-05-13T15:15:28.498Z,3.45
2023-05-13T15:17:55.417Z,4.60
2023-05-13T15:20:22.121Z,2.67
2023-05-13T15:22:48.897Z,2.83
2023-05-13T15:25:15.754Z,2.80
2023-05-13T15:27:43.048Z,2.90
2023-05-13T15:30:11.481Z,2.70
2023-05-13T15:32:38.091Z,4.35
2023-05-13T15:35:05.215Z,3.08
2023-05-13T15:37:32.010Z,2.58
2023-05-13T15:39:58.608Z,2.80
2023-05-13T15:42:25.239Z,2.50
2023-05-13T15:44:51.850Z,3.10
2023-05-13T15:47:18.641Z,3.78
2023-05-13T15:49:45.260Z,2.70
2023-05-13T15:52:11.999Z,2.40
2023-05-13T15:54:38.630Z,3.03
2023-05-13T15:57:05.423Z,2.70
2023-05-13T15:59:32.049Z,2.67
2023-05-13T16:01:58.816Z,3.17
2023-05-13T16:04:26.747Z,2.85
2023-05-13T16:06:53.335Z,2.67
2023-05-13T16:09:19.951Z,2.63
2023-05-13T16:11:47.351Z,2.90
2023-05-13T16:14:14.043Z,2.88
2023-05-13T16:16:40.760Z,2.47
2023-05-13T16:19:08.647Z,2.50
2023-05-13T16:21:35.429Z,2.83
2023-05-13T16:24:02.004Z,2.45
2023-05-13T16:26:28.927Z,2.88
2023-05-13T16:28:55.564Z,3.00
2023-05-13T16:31:22.296Z,2.65
2023-05-13T16:33:49.127Z,2.40
2023-05-13T16:36:15.750Z,2.85
2023-05-13T16:38:42.409Z,2.85
2023-05-13T16:41:09.152Z,2.60
2023-05-13T16:43:35.799Z,2.20
2023-05-13T16:46:02.668Z,2.20
2023-05-13T16:48:29.380Z,2.50
2023-05-13T16:50:56.278Z,2.35
2023-05-13T16:53:23.260Z,2.17
2023-05-13T16:55:50.268Z,2.72
2023-05-13T16:58:17.047Z,2.42
2023-05-13T17:00:44.127Z,2.40
2023-05-13T17:03:11.100Z,2.33
2023-05-13T17:05:37.969Z,2.72
2023-05-13T17:08:04.751Z,2.60
2023-05-13T17:10:31.464Z,2.53
2023-05-13T17:12:58.422Z,2.25
2023-05-13T17:15:25.341Z,2.38
2023-05-13T17:17:51.931Z,2.30
2023-05-13T17:20:19.790Z,2.60
2023-05-13T17:22:47.620Z,2.22
2023-05-13T17:25:15.045Z,2.70
2023-05-13T17:27:41.636Z,2.75
2023-05-13T17:30:08.962Z,3.30
2023-05-13T17:32:36.013Z,2.80
2023-05-13T17:35:04.487Z,2.35
2023-05-13T17:37:31.056Z,2.25
2023-05-13T17:40:00.642Z,2.45
2023-05-13T17:42:28.954Z,2.80
2023-05-13T17:44:55.788Z,2.83
2023-05-13T17:47:22.442Z,2.28
2023-05-13T17:49:49.014Z,2.47
2023-05-13T17:52:15.628Z,2.50
2023-05-13T17:54:42.348Z,2.20
2023-05-13T17:57:11.019Z,2.20
2023-05-13T17:59:37.726Z,2.30
2023-05-13T18:02:04.624Z,2.28
2023-05-13T18:04:31.277Z,2.40
2023-05-13T18:06:57.923Z,2.30
2023-05-13T18:09:24.548Z,2.33
2023-05-13T18:11:51.134Z,2.20
2023-05-13T18:14:17.951Z,2.55
2023-05-13T18:16:44.803Z,2.38
2023-05-13T18:19:11.668Z,2.08
2023-05-13T18:21:38.410Z,2.20
2023-05-13T18:24:05.511Z,2.28
2023-05-13T18:26:32.124Z,2.55
2023-05-13T18:28:58.813Z,2.20
2023-05-13T18:31:25.459Z,2.30
2023-05-13T18:33:52.045Z,2.33
2023-05-13T18:36:18.861Z,2.70
2023-05-13T18:38:47.832Z,2.40
2023-05-13T18:41:15.073Z,2.35
2023-05-13T18:43:41.808Z,2.30
2023-05-13T18:46:08.952Z,2.33
2023-05-13T18:48:36.368Z,2.30
2023-05-13T18:51:03.169Z,2.60
2023-05-13T18:53:29.819Z,2.40
2023-05-13T18:55:56.693Z,2.53
2023-05-13T18:58:23.435Z,2.40
2023-05-13T19:01:08.120Z,2.55
2023-05-13T19:03:34.838Z,2.30
2023-05-13T19:06:01.483Z,2.30
2023-05-13T19:08:28.059Z,2.15
2023-05-13T19:10:55.230Z,2.50
2023-05-13T19:13:22.330Z,2.10
2023-05-13T19:15:49.520Z,2.22
2023-05-13T19:18:16.257Z,2.30
2023-05-13T19:20:43.595Z,2.35
2023-05-13T19:23:10.293Z,2.42
2023-05-13T19:25:41.043Z,2.53
2023-05-13T19:28:09.476Z,2.33
2023-05-13T19:30:36.986Z,2.30
2023-05-13T19:33:04.519Z,2.30
2023-05-13T19:35:35.869Z,2.30
2023-05-13T19:38:03.575Z,2.20
2023-05-13T19:40:30.408Z,2.33
2023-05-13T19:42:57.104Z,2.38
2023-05-13T19:45:23.874Z,2.33
2023-05-13T19:47:50.865Z,2.58
2023-05-13T19:50:18.155Z,2.58
2023-05-13T19:52:44.806Z,2.53
2023-05-13T19:55:11.695Z,2.50
2023-05-13T19:57:44.276Z,2.55
2023-05-13T20:00:11.735Z,2.40
2023-05-13T20:02:38.910Z,2.45
2023-05-13T20:05:08.206Z,2.30
2023-05-13T20:07:34.928Z,2.70
2023-05-13T20:10:01.579Z,2.55
2023-05-13T20:12:28.252Z,2.33
2023-05-13T20:14:58.830Z,2.60
2023-05-13T20:17:26.080Z,2.70
2023-05-13T20:19:54.668Z,2.50
2023-05-13T20:22:22.287Z,2.38
2023-05-13T20:24:50.501Z,2.45
2023-05-13T20:27:17.905Z,2.20
2023-05-13T20:29:46.850Z,2.50
2023-05-13T20:32:14.659Z,2.60
2023-05-13T20:34:42.051Z,2.35
2023-05-13T20:37:08.709Z,2.67
2023-05-13T20:39:35.280Z,2.88
2023-05-13T20:42:01.847Z,2.70
2023-05-13T20:44:28.463Z,2.70
2023-05-13T20:46:54.972Z,3.63
2023-05-13T20:49:21.684Z,2.60
2023-05-13T20:51:48.761Z,2.90
2023-05-13T20:54:15.897Z,4.35
2023-05-13T20:56:42.552Z,2.90
2023-05-13T20:59:09.424Z,2.85
2023-05-13T21:01:36.121Z,3.00
2023-05-13T21:04:06.105Z,2.83
2023-05-13T21:06:33.147Z,3.25
2023-05-13T21:08:59.811Z,3.33
2023-05-13T21:11:26.642Z,3.38
2023-05-13T21:13:53.212Z,3.17
2023-05-13T21:16:19.823Z,3.33
2023-05-13T21:18:46.504Z,3.60
2023-05-13T21:21:13.183Z,3.58
2023-05-13T21:23:40.808Z,3.20
2023-05-13T21:26:07.397Z,3.30
2023-05-13T21:28:34.103Z,3.38
2023-05-13T21:31:00.801Z,3.20
2023-05-13T21:33:27.947Z,3.20
2023-05-13T21:35:55.193Z,3.45
2023-05-13T21:38:22.001Z,3.10
2023-05-13T21:40:49.098Z,3.35
2023-05-13T21:43:15.974Z,3.13
2023-05-13T21:45:42.664Z,3.33
2023-05-13T21:48:09.368Z,3.60
2023-05-13T21:50:36.063Z,3.40
2023-05-13T21:53:02.663Z,3.50
2023-05-13T21:55:33.886Z,3.22
2023-05-13T21:58:02.033Z,3.53
2023-05-13T22:00:28.668Z,4.00
2023-05-13T22:02:57.275Z,3.60
2023-05-13T22:05:24.093Z,3.50
2023-05-13T22:07:51.057Z,3.30
2023-05-13T22:10:17.686Z,3.53
2023-05-13T22:12:44.270Z,3.90
2023-05-13T22:15:11.240Z,3.35
2023-05-13T22:17:37.950Z,3.40
2023-05-13T22:20:05.802Z,3.75
2023-05-13T22:22:32.511Z,3.50
2023-05-13T22:24:59.096Z,3.10
2023-05-13T22:27:25.805Z,3.30
2023-05-13T22:29:52.430Z,3.28
2023-05-13T22:32:18.991Z,3.20
2023-05-13T22:34:45.643Z,3.65
2023-05-13T22:37:12.243Z,3.80
2023-05-13T22:39:38.827Z,3.65
2023-05-13T22:42:05.560Z,3.80
2023-05-13T22:44:32.161Z,3.53
2023-05-13T22:46:58.750Z,4.05
2023-05-13T22:49:25.383Z,4.07
2023-05-13T22:51:51.957Z,3.42
2023-05-13T22:54:18.588Z,3.65
2023-05-13T22:56:45.201Z,3.75
2023-05-13T22:59:11.896Z,3.65
2023-05-13T23:01:38.474Z,3.10
2023-05-13T23:04:05.801Z,3.47
2023-05-13T23:06:32.524Z,3.65
2023-05-13T23:08:59.087Z,3.45
2023-05-13T23:11:25.892Z,3.80
2023-05-13T23:13:52.506Z,3.63
2023-05-13T23:16:19.282Z,3.83
2023-05-13T23:18:45.965Z,3.85
2023-05-13T23:21:12.572Z,3.55
2023-05-13T23:23:39.142Z,3.90
2023-05-13T23:26:06.013Z,4.78
2023-05-13T23:28:33.344Z,3.85
2023-05-13T23:30:59.754Z,3.97
2023-05-13T23:33:26.280Z,3.95
2023-05-13T23:35:56.302Z,4.07
2023-05-13T23:38:23.349Z,3.67
2023-05-13T23:40:50.040Z,3.90
2023-05-13T23:43:16.639Z,3.75
2023-05-13T23:45:43.291Z,3.72
2023-05-13T23:48:09.972Z,3.58
2023-05-13T23:50:36.568Z,3.50
2023-05-13T23:53:03.179Z,3.85
2023-05-13T23:55:29.861Z,3.92
2023-05-13T23:57:56.465Z,3.63
